Time;durP1;ratioP1;P1;durP2;ratioP2;P2;SDS_P1;SDS_P2;PMS_P1;PMS_P2;Temp;Humidity;BMP_temperature;BMP_pressure;BME280_temperature;BME280_humidity;BME280_pressure;Samples;Min_cycle;Max_cycle;Signal;HPM_P1;HPM_P2
2021/12/17 00:00:18;;;;;;;;;;;;;;;6.95;91.29297;104144.2;;;;-86
2021/12/17 00:05:18;;;;;;;;;;;;;;;6.95;91.30176;104140.6;;;;-85
2021/12/17 00:10:18;;;;;;;;;;;;;;;6.95;91.40039;104135.1;;;;-86
2021/12/17 00:15:19;;;;;;;;;;;;;;;6.96;91.33691;104134.9;;;;-85
2021/12/17 00:20:58;;;;;;;;;;;;;;;6.97;91.28418;104144.4;;;;-86
2021/12/17 00:43:58;;;;;;;;;;;;;;;6.97;91.34961;104134.9;;;;-87
2021/12/17 00:50:35;;;;;;;;;;;;;;;6.97;91.45898;104127.5;;;;-85
2021/12/17 00:55:21;;;;;;;;;;;;;;;6.97;91.46973;104136.7;;;;-87
2021/12/17 01:02:30;;;;;;;;;;;;;;;6.98;91.50391;104144.7;;;;-86
2021/12/17 01:07:29;;;;;;;;;;;;;;;6.97;91.52441;104139.8;;;;-86
2021/12/17 01:12:25;;;;;;;;;;;;;;;6.97;91.46973;104128.3;;;;-86
2021/12/17 01:17:31;;;;;;;;;;;;;;;6.97;91.53516;104138.7;;;;-90
2021/12/17 01:23:04;;;;;;;;;;;;;;;6.97;91.60059;104136;;;;-90
2021/12/17 01:42:30;;;;;;;;;;;;;;;6.97;91.88477;104159.9;;;;-89
2021/12/17 01:47:29;;;;;;;;;;;;;;;6.96;91.94922;104162.3;;;;-88
2021/12/17 01:59:33;;;;;;;17.5;7;;;;;;;;;;;;;-85
2021/12/17 02:02:57;;;;;;;;;;;;;;;6.95;92.08008;104183.3;;;;-87
2021/12/17 02:07:31;;;;;;;;;;;;;;;6.95;92.13281;104183.9;;;;-86
2021/12/17 02:23:07;;;;;;;;;;;;;;;6.94;92.07813;104176.5;;;;-86
2021/12/17 02:29:39;;;;;;;19.4;6.6;;;;;;;;;;;;;-85
2021/12/17 02:32:28;;;;;;;;;;;;;;;6.94;92.00195;104161.5;;;;-85
2021/12/17 02:37:28;;;;;;;;;;;;;;;6.94;91.97754;104164.3;;;;-85
2021/12/17 02:42:37;;;;;;;;;;;;;;;6.95;92.0127;104160.9;;;;-86
2021/12/17 02:47:29;;;;;;;;;;;;;;;6.94;91.99023;104155.6;;;;-87
2021/12/17 02:52:24;;;;;;;;;;;;;;;6.93;91.9668;104150.1;;;;-86
2021/12/17 02:57:26;;;;;;;;;;;;;;;6.93;91.9873;104149.8;;;;-87
2021/12/17 02:59:19;;;;;;;18.6;6.8;;;;;;;;;;;;;-85
2021/12/17 03:02:28;;;;;;;;;;;;;;;6.93;91.9873;104145;;;;-87
2021/12/17 03:07:35;;;;;;;;;;;;;;;6.93;91.91895;104133.2;;;;-87
2021/12/17 03:12:30;;;;;;;;;;;;;;;6.92;91.94141;104134;;;;-86
2021/12/17 03:18:08;;;;;;;;;;;;;;;6.92;91.93066;104124.6;;;;-86
2021/12/17 03:27:25;;;;;;;;;;;;;;;6.92;91.88672;104132.4;;;;-86
2021/12/17 03:29:17;;;;;;;18;5.8;;;;;;;;;;;;;-86
2021/12/17 03:32:26;;;;;;;;;;;;;;;6.91;91.87402;104129.6;;;;-85
2021/12/17 03:37:23;;;;;;;;;;;;;;;6.91;91.84082;104130.1;;;;-86
2021/12/17 03:42:25;;;;;;;;;;;;;;;6.91;91.84082;104132.6;;;;-86
2021/12/17 03:47:28;;;;;;;;;;;;;;;6.91;91.84082;104130.5;;;;-86
2021/12/17 03:52:26;;;;;;;;;;;;;;;6.91;91.77539;104129.3;;;;-86
2021/12/17 03:57:25;;;;;;;;;;;;;;;6.9;91.82813;104134.1;;;;-87
2021/12/17 03:59:20;;;;;;;15.5;5.5;;;;;;;;;;;;;-87
2021/12/17 04:02:27;;;;;;;;;;;;;;;6.9;91.87207;104134.1;;;;-86
2021/12/17 04:07:28;;;;;;;;;;;;;;;6.89;91.85938;104136;;;;-87
2021/12/17 04:12:41;;;;;;;;;;;;;;;6.9;91.79297;104140.9;;;;-86
2021/12/17 04:17:37;;;;;;;;;;;;;;;6.89;91.72754;104143.7;;;;-86
2021/12/17 04:22:26;;;;;;;;;;;;;;;6.89;91.77148;104138;;;;-86
2021/12/17 04:27:23;;;;;;;;;;;;;;;6.89;91.77148;104134.4;;;;-85
2021/12/17 04:29:16;;;;;;;14;5.1;;;;;;;;;;;;;-85
2021/12/17 04:37:25;;;;;;;;;;;;;;;6.89;91.70605;104130.8;;;;-85
2021/12/17 04:42:32;;;;;;;;;;;;;;;6.88;91.78027;104128.6;;;;-85
2021/12/17 04:57:36;;;;;;;;;;;;;;;6.88;91.73438;104138.3;;;;-87
2021/12/17 04:59:14;;;;;;;15.7;5.2;;;;;;;;;;;;;-86
2021/12/17 05:02:23;;;;;;;;;;;;;;;6.88;91.74609;104140.2;;;;-85
2021/12/17 05:07:34;;;;;;;;;;;;;;;6.88;91.72363;104134.6;;;;-87
2021/12/17 05:22:43;;;;;;;;;;;;;;;6.88;91.72559;104139.4;;;;-88
2021/12/17 05:27:25;;;;;;;;;;;;;;;6.88;91.67969;104137.9;;;;-87
2021/12/17 05:29:24;;;;;;;13.1;4.8;;;;;;;;;;;;;-87
2021/12/17 05:32:30;;;;;;;;;;;;;;;6.88;91.70215;104138.8;;;;-87
2021/12/17 05:37:25;;;;;;;;;;;;;;;6.88;91.72363;104140.9;;;;-86
2021/12/17 05:42:29;;;;;;;;;;;;;;;6.88;91.63867;104148;;;;-86
2021/12/17 05:47:25;;;;;;;;;;;;;;;6.88;91.66016;104144.4;;;;-86
2021/12/17 05:52:26;;;;;;;;;;;;;;;6.89;91.67285;104147.4;;;;-86
2021/12/17 05:57:39;;;;;;;;;;;;;;;6.88;91.68164;104146.3;;;;-88
2021/12/17 05:59:16;;;;;;;13.5;4.9;;;;;;;;;;;;;-88
2021/12/17 06:02:28;;;;;;;;;;;;;;;6.88;91.68164;104154.7;;;;-87
2021/12/17 06:07:32;;;;;;;;;;;;;;;6.89;91.64063;104163.2;;;;-87
2021/12/17 06:12:38;;;;;;;;;;;;;;;6.88;91.6582;104159;;;;-86
2021/12/17 06:17:30;;;;;;;;;;;;;;;6.88;91.62695;104160.3;;;;-88
2021/12/17 06:22:30;;;;;;;;;;;;;;;6.89;91.64063;104166.8;;;;-87
2021/12/17 06:27:26;;;;;;;;;;;;;;;6.9;91.65137;104167;;;;-87
2021/12/17 06:29:19;;;;;;;15.4;4.6;;;;;;;;;;;;;-87
2021/12/17 06:32:27;;;;;;;;;;;;;;;6.9;91.61816;104171.4;;;;-84
2021/12/17 06:37:30;;;;;;;;;;;;;;;6.89;91.57422;104170.2;;;;-88
2021/12/17 06:42:25;;;;;;;;;;;;;;;6.89;91.61816;104171.6;;;;-87
2021/12/17 06:47:34;;;;;;;;;;;;;;;6.9;91.61816;104180.8;;;;-89
2021/12/17 07:28:05;;;;;;;;;;;;;;;6.91;91.63281;104209.5;;;;-87
2021/12/17 07:35:02;;;;;;;;;;;;;;;6.91;91.63281;104206.9;;;;-86
2021/12/17 07:39:40;;;;;;;;;;;;;;;6.92;91.67871;104197.5;;;;-86
2021/12/17 07:44:38;;;;;;;;;;;;;;;6.92;91.64648;104211.9;;;;-86
2021/12/17 07:49:38;;;;;;;;;;;;;;;6.92;91.63477;104209.9;;;;-86
2021/12/17 07:54:53;;;;;;;;;;;;;;;6.93;91.61523;104218;;;;-86
2021/12/17 07:59:17;;;;;;;12.7;4.6;;;;;;;;;;;;;-87
2021/12/17 07:59:41;;;;;;;;;;;;;;;6.93;91.61719;104216.4;;;;-87
2021/12/17 08:04:40;;;;;;;;;;;;;;;6.94;91.59668;104221.5;;;;-87
2021/12/17 08:09:44;;;;;;;;;;;;;;;6.96;91.56641;104212.4;;;;-87
2021/12/17 08:14:42;;;;;;;;;;;;;;;6.97;91.63379;104201.3;;;;-88
2021/12/17 08:24:54;;;;;;;;;;;;;;;6.99;91.69434;104209.9;;;;-87
2021/12/17 08:29:32;;;;;;;11.4;4.2;;;;;;;;;;;;;-87
2021/12/17 08:34:45;;;;;;;;;;;;;;;7.02;91.58008;104213.8;;;;-87
2021/12/17 08:39:40;;;;;;;;;;;;;;;7.04;91.59473;104226.8;;;;-85
2021/12/17 08:44:45;;;;;;;;;;;;;;;7.07;91.56738;104225.8;;;;-85
2021/12/17 08:49:40;;;;;;;;;;;;;;;7.09;91.50781;104232.4;;;;-87
2021/12/17 08:54:40;;;;;;;;;;;;;;;7.12;91.45801;104227.1;;;;-86
2021/12/17 08:59:28;;;;;;;13.6;4.5;;;;;;;;;;;;;-87
2021/12/17 08:59:45;;;;;;;;;;;;;;;7.14;91.48438;104227.8;;;;-87
2021/12/17 09:04:45;;;;;;;;;;;;;;;7.19;91.42969;104225.5;;;;-85
2021/12/17 09:09:39;;;;;;;;;;;;;;;7.22;91.35938;104223.9;;;;-87
2021/12/17 09:14:41;;;;;;;;;;;;;;;7.26;91.36914;104234.2;;;;-85
2021/12/17 09:19:49;;;;;;;;;;;;;;;7.3;91.34375;104224.7;;;;-87
2021/12/17 09:24:43;;;;;;;;;;;;;;;7.34;91.33984;104235.2;;;;-87
2021/12/17 09:29:19;;;;;;;13.1;4.4;;;;;;;;;;;;;-87
2021/12/17 09:29:44;;;;;;;;;;;;;;;7.37;91.32422;104239.6;;;;-87
2021/12/17 09:34:42;;;;;;;;;;;;;;;7.41;91.31152;104250.5;;;;-88
2021/12/17 09:39:42;;;;;;;;;;;;;;;7.45;91.2959;104250.4;;;;-87
2021/12/17 09:44:41;;;;;;;;;;;;;;;7.49;91.29395;104266.6;;;;-89
2021/12/17 09:49:47;;;;;;;;;;;;;;;7.53;91.28027;104279.7;;;;-90
2021/12/17 09:54:41;;;;;;;;;;;;;;;7.57;91.27832;104284.2;;;;-86
2021/12/17 09:59:14;;;;;;;10;3.8;;;;;;;;;;;;;-87
2021/12/17 09:59:43;;;;;;;;;;;;;;;7.59;91.30566;104285.4;;;;-86
2021/12/17 10:04:45;;;;;;;;;;;;;;;7.65;91.22949;104289.2;;;;-86
2021/12/17 10:09:41;;;;;;;;;;;;;;;7.68;91.26855;104291.3;;;;-87
2021/12/17 10:14:40;;;;;;;;;;;;;;;7.7;91.18652;104291.8;;;;-86
2021/12/17 10:19:53;;;;;;;;;;;;;;;7.72;91.22363;104293.1;;;;-87
2021/12/17 10:24:45;;;;;;;;;;;;;;;7.75;91.21582;104287.8;;;;-87
2021/12/17 10:29:23;;;;;;;9.3;3.5;;;;;;;;;;;;;-86
2021/12/17 10:29:41;;;;;;;;;;;;;;;7.77;91.15625;104278.8;;;;-87
2021/12/17 10:34:54;;;;;;;;;;;;;;;7.78;91.11621;104277.5;;;;-87
2021/12/17 10:39:40;;;;;;;;;;;;;;;7.8;91.10742;104282;;;;-87
2021/12/17 10:44:50;;;;;;;;;;;;;;;7.82;91.06738;104271.8;;;;-86
2021/12/17 10:49:52;;;;;;;;;;;;;;;7.83;90.92871;104270.3;;;;-87
2021/12/17 10:54:42;;;;;;;;;;;;;;;7.84;90.91895;104266;;;;-87
2021/12/17 10:59:13;;;;;;;7.4;3.2;;;;;;;;;;;;;-87
2021/12/17 10:59:41;;;;;;;;;;;;;;;7.85;90.88867;104263.2;;;;-86
2021/12/17 11:04:39;;;;;;;;;;;;;;;7.87;90.85938;104263.2;;;;-85
2021/12/17 11:09:44;;;;;;;;;;;;;;;7.9;90.91992;104257.7;;;;-84
2021/12/17 11:14:41;;;;;;;;;;;;;;;7.92;90.93457;104259.6;;;;-84
2021/12/17 11:19:39;;;;;;;;;;;;;;;7.94;90.94043;104259.4;;;;-86
2021/12/17 11:24:40;;;;;;;;;;;;;;;7.96;90.94434;104261.4;;;;-86
2021/12/17 11:29:11;;;;;;;6.9;2.6;;;;;;;;;;;;;-86
2021/12/17 11:29:38;;;;;;;;;;;;;;;7.98;90.94824;104256;;;;-85
2021/12/17 11:34:38;;;;;;;;;;;;;;;7.99;90.91699;104258.5;;;;-87
2021/12/17 11:39:42;;;;;;;;;;;;;;;8.02;90.88965;104268.1;;;;-87
2021/12/17 11:44:52;;;;;;;;;;;;;;;8.03;90.89355;104268;;;;-86
2021/12/17 11:49:49;;;;;;;;;;;;;;;8.04;90.9502;104271.2;;;;-86
2021/12/17 11:54:39;;;;;;;;;;;;;;;8.05;90.9873;104275.6;;;;-87
2021/12/17 11:59:31;;;;;;;6.2;2.5;;;;;;;;;;;;;-86
2021/12/17 11:59:48;;;;;;;;;;;;;;;8.05;90.98535;104270;;;;-86
2021/12/17 12:04:58;;;;;;;;;;;;;;;8.05;90.93066;104267.2;;;;-84
2021/12/17 12:09:54;;;;;;;;;;;;;;;8.06;90.87695;104264.1;;;;-85
2021/12/17 12:14:55;;;;;;;;;;;;;;;;;;;;;
2021/12/17 12:19:54;;;;;;;;;;;;;;;8.05;90.79883;104267.2;;;;-84
2021/12/17 12:28:09;;;;;;;;;;;;;;;8.05;90.75488;104267.8;;;;-86
2021/12/17 12:38:24;;;;;;;;;;;;;;;;;;;;;
2021/12/17 12:43:08;;;;;;;;;;;;;;;8.04;90.92871;104260.4;;;;-87
2021/12/17 12:48:08;;;;;;;;;;;;;;;8.03;91.02734;104255.5;;;;-86
2021/12/17 12:53:31;;;;;;;;;;;;;;;8.03;91.11523;104256.7;;;;-86
2021/12/17 12:58:18;;;;;;;;;;;;;;;8.04;91.12598;104247.2;;;;-85
2021/12/17 12:59:13;;;;;;;5.1;2.6;;;;;;;;;;;;;-87
2021/12/17 13:03:11;;;;;;;;;;;;;;;8.03;91.12402;104251.2;;;;-87
2021/12/17 13:08:16;;;;;;;;;;;;;;;8.03;91.22461;104251.7;;;;-86
2021/12/17 13:13:16;;;;;;;;;;;;;;;8.02;91.14355;104249.8;;;;-86
2021/12/17 13:23:25;;;;;;;;;;;;;;;8.04;91.33398;104250.4;;;;-85
2021/12/17 13:28:09;;;;;;;;;;;;;;;8.04;91.25684;104248.5;;;;-86
2021/12/17 13:29:18;;;;;;;4.8;2.4;;;;;;;;;;;;;-86
2021/12/17 13:38:56;;;;;;;;;;;;;;;8.04;91.3125;104244.1;;;;-87
2021/12/17 13:43:47;;;;;;;;;;;;;;;8.04;91.35547;104241.1;;;;-89
2021/12/17 13:48:43;;;;;;;;;;;;;;;8.03;91.37793;104252.4;;;;-88
2021/12/17 13:53:48;;;;;;;;;;;;;;;8.04;91.4541;104245.4;;;;-89
2021/12/17 13:58:55;;;;;;;;;;;;;;;8.03;91.50781;104248;;;;-88
2021/12/17 13:59:13;;;;;;;5.1;2.6;;;;;;;;;;;;;-88
2021/12/17 14:03:38;;;;;;;;;;;;;;;8.02;91.59375;104249.6;;;;-87
2021/12/17 14:08:41;;;;;;;;;;;;;;;8.02;91.65918;104249.4;;;;-88
2021/12/17 14:13:46;;;;;;;;;;;;;;;8.02;91.69043;104239.3;;;;-87
2021/12/17 14:18:43;;;;;;;;;;;;;;;8.02;91.70117;104229.8;;;;-87
2021/12/17 14:23:42;;;;;;;;;;;;;;;8.02;91.75586;104228.2;;;;-90
2021/12/17 14:28:47;;;;;;;;;;;;;;;8.01;91.7998;104219.4;;;;-87
2021/12/17 14:29:23;;;;;;;5.2;2.9;;;;;;;;;;;;;-87
2021/12/17 14:33:47;;;;;;;;;;;;;;;8;91.87402;104223.1;;;;-87
2021/12/17 14:38:45;;;;;;;;;;;;;;;8;91.91797;104220.2;;;;-87
2021/12/17 14:43:43;;;;;;;;;;;;;;;7.99;91.98047;104207;;;;-88
2021/12/17 14:48:47;;;;;;;;;;;;;;;7.98;92.0459;104213.6;;;;-85
2021/12/17 15:03:43;;;;;;;;;;;;;;;7.95;92.08203;104219.1;;;;-86
2021/12/17 15:08:38;;;;;;;;;;;;;;;7.94;92.12402;104221.7;;;;-87
2021/12/17 15:13:35;;;;;;;;;;;;;;;7.92;92.12012;104225.2;;;;-88
2021/12/17 15:18:42;;;;;;;;;;;;;;;7.92;92.04199;104232;;;;-87
2021/12/17 15:23:35;;;;;;;;;;;;;;;7.91;91.98438;104230;;;;-87
2021/12/17 15:29:01;;;;;;;;;;;;;;;7.89;91.96973;104228.6;;;;-87
2021/12/17 15:29:25;;;;;;;5.2;3.1;;;;;;;;;;;;;-87
2021/12/17 15:33:38;;;;;;;;;;;;;;;7.87;92.02051;104231;;;;-88
2021/12/17 15:38:36;;;;;;;;;;;;;;;7.86;92.04102;104235.8;;;;-88
2021/12/17 15:48:39;;;;;;;;;;;;;;;7.83;92.06836;104227.2;;;;-87
2021/12/17 15:58:36;;;;;;;;;;;;;;;7.8;92.06055;104231.5;;;;-87
2021/12/17 15:59:12;;;;;;;5.4;3.1;;;;;;;;;;;;;-87
2021/12/17 16:03:52;;;;;;;;;;;;;;;7.79;92.02734;104234.5;;;;-88
2021/12/17 16:18:57;;;;;;;;;;;;;;;7.75;91.88867;104241.3;;;;-85
2021/12/17 16:23:38;;;;;;;;;;;;;;;7.74;91.89551;104238.3;;;;-85
2021/12/17 16:28:37;;;;;;;;;;;;;;;7.72;91.88965;104228.4;;;;-86
2021/12/17 16:29:20;;;;;;;5.9;3.3;;;;;;;;;;;;;-87
2021/12/17 16:41:08;;;;;;;;;;;;;;;7.71;91.89844;104223.2;;;;-85
2021/12/17 17:01:35;;;;;;;;;;;;;;;7.67;92.02246;104228.9;;;;-86
2021/12/17 17:06:21;;;;;;;;;;;;;;;7.66;92.04395;104241.2;;;;-85
2021/12/17 17:11:18;;;;;;;;;;;;;;;7.65;91.98535;104238.3;;;;-86
2021/12/17 17:21:19;;;;;;;;;;;;;;;7.6;91.9873;104240.7;;;;-85
2021/12/17 17:26:29;;;;;;;;;;;;;;;7.59;91.96289;104243.8;;;;-83
2021/12/17 17:29:34;;;;;;;6.6;3.3;;;;;;;;;;;;;-84
2021/12/17 17:31:24;;;;;;;;;;;;;;;7.58;91.94824;104248.2;;;;-87
2021/12/17 17:36:12;;;;;;;;;;;;;;;7.57;91.93555;104246.2;;;;-79
2021/12/17 17:41:13;;;;;;;;;;;;;;;7.56;91.91406;104250.1;;;;-82
2021/12/17 17:46:15;;;;;;;;;;;;;;;7.55;91.90039;104253.6;;;;-82
2021/12/17 17:51:12;;;;;;;;;;;;;;;7.55;91.9209;104257.7;;;;-82
2021/12/17 17:56:12;;;;;;;;;;;;;;;7.53;91.88379;104257.7;;;;-82
2021/12/17 17:59:10;;;;;;;5.1;3;;;;;;;;;;;;;-84
2021/12/17 18:01:12;;;;;;;;;;;;;;;7.51;91.84766;104252.9;;;;-81
2021/12/17 18:06:13;;;;;;;;;;;;;;;7.49;91.84375;104254.6;;;;-84
2021/12/17 18:11:17;;;;;;;;;;;;;;;7.47;91.7832;104254.6;;;;-87
2021/12/17 18:18:57;;;;;;;;;;;;;;;7.44;91.68945;104260.8;;;;-86
2021/12/17 18:23:58;;;;;;;;;;;;;;;7.42;91.66406;104259.2;;;;-87
2021/12/17 18:51:10;;;;;;;;;;;;;;;7.34;91.50488;104262.7;;;;-87
2021/12/17 18:56:06;;;;;;;;;;;;;;;7.32;91.50098;104270.4;;;;-86
2021/12/17 19:03:50;;;;;;;;;;;;;;;7.29;91.50586;104256.7;;;;-86
2021/12/17 19:08:52;;;;;;;;;;;;;;;7.28;91.5127;104259.4;;;;-87
2021/12/17 19:14:04;;;;;;;;;;;;;;;7.27;91.4668;104257.7;;;;-87
2021/12/17 19:18:56;;;;;;;;;;;;;;;7.26;91.46582;104256.1;;;;-86
2021/12/17 19:24:33;;;;;;;;;;;;;;;7.24;91.43945;104255.9;;;;-86
2021/12/17 19:30:16;;;;;;;;;;;;;;;7.21;91.43164;104254.1;;;;-87
2021/12/17 19:34:43;;;;;;;;;;;;;;;7.21;91.43359;104251;;;;-85
2021/12/17 19:39:33;;;;;;;;;;;;;;;7.21;91.43164;104257.2;;;;-86
2021/12/17 19:44:33;;;;;;;;;;;;;;;7.2;91.39746;104255;;;;-87
2021/12/17 21:00:55;;;;;;;;;;;;;;;7.21;91.53027;104247.3;;;;-83
2021/12/17 21:05:57;;;;;;;;;;;;;;;7.2;91.50879;104247;;;;-84
2021/12/17 21:15:46;;;;;;;;;;;;;;;7.21;91.4668;104254.4;;;;-85
2021/12/17 21:24:57;;;;;;;;;;;;;;;7.21;91.47754;104249.3;;;;-86
2021/12/17 21:29:08;;;;;;;4.3;2.5;;;;;;;;;;;;;-86
2021/12/17 21:29:59;;;;;;;;;;;;;;;7.21;91.4668;104248.9;;;;-86
2021/12/17 21:35:04;;;;;;;;;;;;;;;7.21;91.47754;104242.6;;;;-85
2021/12/17 21:39:59;;;;;;;;;;;;;;;7.21;91.46875;104243.7;;;;-86
2021/12/17 21:44:56;;;;;;;;;;;;;;;7.21;91.49023;104241.1;;;;-87
2021/12/17 21:50:11;;;;;;;;;;;;;;;7.21;91.48828;104238.4;;;;-87
2021/12/17 21:55:05;;;;;;;;;;;;;;;7.21;91.44434;104233.1;;;;-84
2021/12/17 21:59:11;;;;;;;5.3;2.6;;;;;;;;;;;;;-84
2021/12/17 21:59:59;;;;;;;;;;;;;;;7.21;91.48828;104230.6;;;;-85
2021/12/17 22:05:02;;;;;;;;;;;;;;;7.21;91.47754;104230.8;;;;-83
2021/12/17 22:09:58;;;;;;;;;;;;;;;7.21;91.45605;104230.6;;;;-84
2021/12/17 22:15:02;;;;;;;;;;;;;;;7.21;91.5;104231.3;;;;-85
2021/12/17 22:20:07;;;;;;;;;;;;;;;7.21;91.48828;104232.5;;;;-84
2021/12/17 22:24:57;;;;;;;;;;;;;;;7.21;91.48828;104231;;;;-84
2021/12/17 22:29:15;;;;;;;3.9;2.4;;;;;;;;;;;;;-84
2021/12/17 22:29:56;;;;;;;;;;;;;;;7.21;91.47754;104234.1;;;;-83
2021/12/17 22:35:01;;;;;;;;;;;;;;;7.21;91.49805;104233.2;;;;-84
2021/12/17 22:40:12;;;;;;;;;;;;;;;7.21;91.5;104238.7;;;;-85
2021/12/17 22:45:00;;;;;;;;;;;;;;;7.21;91.47949;104231.9;;;;-86
2021/12/17 22:50:09;;;;;;;;;;;;;;;7.21;91.50195;104233;;;;-85
2021/12/17 22:55:08;;;;;;;;;;;;;;;7.22;91.47949;104238.4;;;;-85
2021/12/17 22:59:06;;;;;;;3.7;2.2;;;;;;;;;;;;;-85
2021/12/17 22:59:56;;;;;;;;;;;;;;;7.22;91.5127;104233;;;;-85
2021/12/17 23:05:06;;;;;;;;;;;;;;;7.22;91.5127;104235.4;;;;-83
2021/12/17 23:10:01;;;;;;;;;;;;;;;7.22;91.52344;104244.5;;;;-85
2021/12/17 23:14:57;;;;;;;;;;;;;;;7.23;91.52539;104243.2;;;;-85
2021/12/17 23:19:59;;;;;;;;;;;;;;;7.24;91.57129;104242.1;;;;-85
2021/12/17 23:24:57;;;;;;;;;;;;;;;7.23;91.60156;104237.7;;;;-85
2021/12/17 23:29:07;;;;;;;4.6;2.4;;;;;;;;;;;;;-85
2021/12/17 23:29:57;;;;;;;;;;;;;;;7.24;91.57129;104236;;;;-86
2021/12/17 23:34:59;;;;;;;;;;;;;;;7.23;91.55762;104235.4;;;;-85
2021/12/17 23:40:00;;;;;;;;;;;;;;;7.23;91.55957;104232.2;;;;-85
2021/12/17 23:44:57;;;;;;;;;;;;;;;7.22;91.5127;104234.9;;;;-85
2021/12/17 23:49:57;;;;;;;;;;;;;;;7.22;91.46875;104230.9;;;;-85
2021/12/17 23:55:02;;;;;;;;;;;;;;;7.21;91.5127;104230.2;;;;-84
2021/12/17 23:59:05;;;;;;;4.9;2.3;;;;;;;;;;;;;-85
2021/12/17 23:59:57;;;;;;;;;;;;;;;7.21;91.4668;104227.9;;;;-84
